Time;durP1;ratioP1;P1;durP2;ratioP2;P2;SDS_P1;SDS_P2;PMS_P1;PMS_P2;Temp;Humidity;BMP_temperature;BMP_pressure;BME280_temperature;BME280_humidity;BME280_pressure;Samples;Min_cycle;Max_cycle;Signal;HPM_P1;HPM_P2
2023/11/08 00:00:05;;;;;;;7.13;1.70;;;6.20;99.90;;;;;;5027618;28;20867;-70
2023/11/08 00:02:33;;;;;;;7.60;1.63;;;6.20;99.90;;;;;;5022130;28;21017;-70
2023/11/08 00:05:03;;;;;;;10.03;1.57;;;6.20;99.90;;;;;;5027364;28;20449;-70
2023/11/08 00:07:31;;;;;;;9.07;1.98;;;6.10;99.90;;;;;;5030307;28;20495;-71
2023/11/08 00:09:59;;;;;;;7.87;1.80;;;6.20;99.90;;;;;;5031486;28;20631;-71
2023/11/08 00:12:26;;;;;;;6.67;1.50;;;6.10;99.90;;;;;;5023223;28;20558;-70
2023/11/08 00:14:57;;;;;;;9.33;1.60;;;6.10;99.90;;;;;;5027008;28;20936;-71
2023/11/08 00:17:26;;;;;;;7.27;1.60;;;6.10;99.90;;;;;;5043377;28;20573;-69
2023/11/08 00:19:55;;;;;;;9.30;1.20;;;6.00;99.90;;;;;;5045455;28;20815;-69
2023/11/08 00:22:24;;;;;;;6.43;1.40;;;6.00;99.90;;;;;;5026034;28;20461;-72
2023/11/08 00:24:52;;;;;;;8.50;1.40;;;6.10;99.90;;;;;;5030567;28;20447;-69
2023/11/08 00:27:20;;;;;;;7.20;1.33;;;6.10;99.90;;;;;;5031097;28;20901;-71
2023/11/08 00:29:48;;;;;;;6.23;1.23;;;6.10;99.90;;;;;;5025298;28;20452;-70
2023/11/08 00:32:21;;;;;;;8.47;1.80;;;6.20;99.90;;;;;;5026466;28;20571;-71
2023/11/08 00:34:49;;;;;;;7.77;1.13;;;6.20;99.90;;;;;;5030387;28;20491;-71
2023/11/08 00:37:18;;;;;;;6.40;1.30;;;6.40;99.90;;;;;;5030277;28;20475;-69
2023/11/08 00:39:46;;;;;;;8.33;1.57;;;6.50;99.90;;;;;;5035446;28;20926;-70
2023/11/08 00:42:15;;;;;;;8.17;1.43;;;6.60;99.90;;;;;;5031884;28;20503;-73
2023/11/08 00:44:43;;;;;;;6.73;1.27;;;6.70;99.90;;;;;;5030522;28;20482;-73
2023/11/08 00:47:11;;;;;;;8.67;1.63;;;6.80;99.90;;;;;;5030533;28;20824;-71
2023/11/08 00:49:41;;;;;;;8.10;1.23;;;7.00;99.90;;;;;;5030613;28;20978;-73
2023/11/08 00:52:11;;;;;;;7.13;1.53;;;6.90;99.90;;;;;;5026661;28;21018;-71
2023/11/08 00:54:39;;;;;;;6.53;1.23;;;6.90;99.90;;;;;;5029864;28;20986;-70
2023/11/08 00:57:08;;;;;;;7.80;1.43;;;7.00;99.90;;;;;;5030824;28;20495;-71
2023/11/08 00:59:36;;;;;;;7.70;1.40;;;7.00;99.90;;;;;;5030690;28;20534;-70
2023/11/08 01:02:04;;;;;;;7.50;1.33;;;7.10;99.90;;;;;;5025059;28;20444;-71
2023/11/08 01:04:32;;;;;;;8.00;1.20;;;7.10;99.90;;;;;;5027854;28;20483;-70
2023/11/08 01:07:02;;;;;;;7.47;1.17;;;7.10;99.90;;;;;;5033449;28;20468;-70
2023/11/08 01:09:31;;;;;;;10.83;1.67;;;7.20;99.90;;;;;;5031830;28;20452;-72
2023/11/08 01:11:59;;;;;;;11.10;1.60;;;7.10;99.90;;;;;;5016613;28;20449;-70
2023/11/08 01:14:27;;;;;;;10.00;2.20;;;7.10;99.90;;;;;;5029820;28;20487;-69
2023/11/08 01:16:55;;;;;;;9.43;1.20;;;7.20;99.90;;;;;;5029529;28;20468;-71
2023/11/08 01:19:24;;;;;;;9.70;1.47;;;7.10;99.90;;;;;;5030100;28;21226;-72
2023/11/08 01:21:52;;;;;;;6.10;1.20;;;7.10;99.90;;;;;;5026415;28;20456;-70
2023/11/08 01:24:24;;;;;;;9.60;1.50;;;7.10;99.90;;;;;;5029725;28;20437;-70
2023/11/08 01:26:52;;;;;;;6.30;1.20;;;7.00;99.90;;;;;;5029822;28;20478;-70
2023/11/08 01:29:20;;;;;;;7.70;1.50;;;6.90;99.90;;;;;;5030009;28;20445;-70
2023/11/08 01:31:49;;;;;;;6.40;1.20;;;6.80;99.90;;;;;;5021414;28;20679;-70
2023/11/08 01:34:17;;;;;;;7.67;1.20;;;6.70;99.90;;;;;;5029321;28;20581;-72
2023/11/08 01:36:45;;;;;;;6.90;1.10;;;6.60;99.90;;;;;;5030060;28;20545;-69
2023/11/08 01:39:13;;;;;;;7.70;1.33;;;6.70;99.90;;;;;;5029841;28;20480;-72
2023/11/08 01:41:49;;;;;;;9.03;2.23;;;6.60;99.90;;;;;;5026650;28;21241;-70
2023/11/08 01:44:19;;;;;;;8.05;1.40;;;6.60;99.90;;;;;;5028432;28;20441;-72
2023/11/08 01:46:50;;;;;;;8.50;1.43;;;6.60;99.90;;;;;;5029448;28;20281;-72
2023/11/08 01:49:18;;;;;;;6.80;1.20;;;6.60;99.90;;;;;;5029798;28;20479;-70
2023/11/08 01:51:49;;;;;;;6.70;1.40;;;6.70;99.90;;;;;;5026402;28;20464;-72
2023/11/08 01:54:19;;;;;;;7.90;1.03;;;6.50;99.90;;;;;;5029344;28;20895;-71
2023/11/08 01:56:49;;;;;;;7.77;1.30;;;6.40;99.90;;;;;;5029455;28;21047;-71
2023/11/08 01:59:18;;;;;;;9.00;1.20;;;6.40;99.90;;;;;;5029227;28;21023;-71
2023/11/08 02:01:46;;;;;;;7.77;1.20;;;6.40;99.90;;;;;;5026498;28;20841;-72
2023/11/08 02:04:15;;;;;;;7.23;1.50;;;6.40;99.90;;;;;;5029239;28;20518;-72
2023/11/08 02:06:43;;;;;;;7.23;1.40;;;6.40;99.90;;;;;;5028291;28;20467;-69
2023/11/08 02:09:12;;;;;;;6.60;1.13;;;6.30;99.90;;;;;;5035031;28;20635;-70
2023/11/08 02:11:41;;;;;;;10.40;1.40;;;6.40;99.90;;;;;;5022262;28;20572;-69
2023/11/08 02:14:10;;;;;;;6.37;1.17;;;6.30;99.90;;;;;;5028695;28;20487;-73
2023/11/08 02:16:40;;;;;;;7.90;1.40;;;6.30;99.90;;;;;;5028707;28;20564;-71
2023/11/08 02:19:08;;;;;;;6.80;1.57;;;6.20;99.90;;;;;;5028921;28;20454;-71
2023/11/08 02:21:36;;;;;;;6.53;1.50;;;6.20;99.90;;;;;;5026229;28;20452;-71
2023/11/08 02:24:19;;;;;;;6.50;1.20;;;6.10;99.90;;;;;;5028035;28;20472;-70
2023/11/08 02:26:48;;;;;;;7.40;1.27;;;6.10;99.90;;;;;;5028930;28;21008;-71
2023/11/08 02:29:17;;;;;;;6.13;1.10;;;6.10;99.90;;;;;;5028614;28;20459;-70
2023/11/08 02:31:49;;;;;;;8.63;1.20;;;6.10;99.90;;;;;;5026196;28;20648;-73
2023/11/08 02:34:18;;;;;;;7.80;1.60;;;6.00;99.90;;;;;;5028022;28;20501;-70
2023/11/08 02:36:48;;;;;;;7.30;1.50;;;6.00;99.90;;;;;;5028368;28;20465;-71
2023/11/08 02:39:19;;;;;;;8.07;1.20;;;6.00;99.90;;;;;;5028655;28;20456;-70
2023/11/08 02:41:47;;;;;;;6.73;1.00;;;6.00;99.90;;;;;;5026934;28;20580;-69
2023/11/08 02:44:15;;;;;;;8.20;2.27;;;6.00;99.90;;;;;;5022379;28;20462;-71
2023/11/08 02:46:43;;;;;;;7.03;1.20;;;6.10;99.90;;;;;;5028073;28;20472;-69
2023/11/08 02:49:11;;;;;;;7.90;1.20;;;6.00;99.90;;;;;;5028511;28;20469;-70
2023/11/08 02:51:39;;;;;;;6.70;1.03;;;6.00;99.90;;;;;;5030144;28;20461;-71
2023/11/08 02:54:08;;;;;;;6.60;1.10;;;6.00;99.90;;;;;;5028201;28;20493;-70
2023/11/08 02:56:40;;;;;;;7.60;1.00;;;5.90;99.90;;;;;;5028240;28;20486;-73
2023/11/08 02:59:09;;;;;;;7.80;1.40;;;5.90;99.90;;;;;;5029049;28;20845;-71
2023/11/08 03:01:38;;;;;;;8.17;1.40;;;6.00;99.90;;;;;;5022765;28;20570;-67
2023/11/08 03:04:06;;;;;;;7.93;1.20;;;5.90;99.90;;;;;;5034541;28;20477;-71
2023/11/08 03:06:34;;;;;;;7.17;1.77;;;6.00;99.90;;;;;;5011806;28;20466;-71
2023/11/08 03:09:05;;;;;;;6.90;1.17;;;6.10;99.90;;;;;;5008872;28;20479;-70
2023/11/08 03:11:33;;;;;;;7.20;1.10;;;6.10;99.90;;;;;;5010644;28;20464;-71
2023/11/08 03:14:03;;;;;;;12.90;1.30;;;6.20;99.90;;;;;;5027529;28;21007;-71
2023/11/08 03:16:31;;;;;;;6.30;1.10;;;6.30;99.90;;;;;;5027840;28;20478;-71
2023/11/08 03:18:59;;;;;;;6.40;0.97;;;6.20;99.90;;;;;;5028423;28;20489;-71
2023/11/08 03:21:27;;;;;;;7.10;1.03;;;6.20;99.90;;;;;;5022441;28;20489;-71
2023/11/08 03:23:55;;;;;;;6.60;1.30;;;6.20;99.90;;;;;;5027804;28;20455;-70
2023/11/08 03:26:23;;;;;;;6.40;1.20;;;6.10;99.90;;;;;;5027844;28;20512;-71
2023/11/08 03:28:51;;;;;;;7.83;0.93;;;6.10;99.90;;;;;;5028008;28;20523;-72
2023/11/08 03:31:20;;;;;;;8.43;1.67;;;6.00;99.90;;;;;;5023382;28;20956;-72
2023/11/08 03:33:48;;;;;;;6.00;1.00;;;6.00;99.90;;;;;;5019739;28;20559;-70
2023/11/08 03:36:16;;;;;;;6.40;1.17;;;6.00;99.90;;;;;;5027547;28;20505;-71
2023/11/08 03:38:44;;;;;;;6.03;1.17;;;6.00;99.90;;;;;;5027835;28;21106;-70
2023/11/08 03:41:14;;;;;;;6.77;1.20;;;6.20;99.90;;;;;;5026465;28;20463;-70
2023/11/08 03:43:41;;;;;;;7.07;1.20;;;6.20;99.90;;;;;;5030940;28;20567;-71
2023/11/08 03:46:09;;;;;;;6.47;1.20;;;6.20;99.90;;;;;;5031605;28;20462;-70
2023/11/08 03:48:39;;;;;;;8.20;1.10;;;6.30;99.90;;;;;;5031591;28;20452;-71
2023/11/08 03:51:08;;;;;;;9.50;1.07;;;6.30;99.90;;;;;;5024901;28;20583;-73
2023/11/08 03:53:36;;;;;;;12.33;1.47;;;6.40;99.90;;;;;;5030756;28;20529;-71
2023/11/08 03:56:05;;;;;;;8.27;1.30;;;6.50;99.90;;;;;;5030918;28;20556;-71
2023/11/08 03:58:33;;;;;;;6.63;1.23;;;6.50;99.90;;;;;;5028174;28;20477;-70
2023/11/08 04:01:00;;;;;;;6.73;0.97;;;6.50;99.90;;;;;;5031556;28;21247;-70
2023/11/08 04:03:28;;;;;;;9.27;1.60;;;6.50;99.90;;;;;;5030417;28;20479;-70
2023/11/08 04:05:58;;;;;;;7.93;1.00;;;6.50;99.90;;;;;;5031076;28;20470;-70
2023/11/08 04:08:26;;;;;;;7.27;1.23;;;6.50;99.90;;;;;;5022277;28;20475;-71
2023/11/08 04:10:54;;;;;;;7.00;1.07;;;6.60;99.90;;;;;;5030482;28;20962;-72
2023/11/08 04:13:22;;;;;;;8.47;1.50;;;6.60;99.90;;;;;;5029439;28;20543;-72
2023/11/08 04:15:50;;;;;;;6.73;0.80;;;6.70;99.90;;;;;;5030854;28;20487;-72
2023/11/08 04:18:18;;;;;;;8.60;1.20;;;6.70;99.90;;;;;;5028613;28;20484;-69
2023/11/08 04:20:46;;;;;;;6.50;0.90;;;6.80;99.90;;;;;;5023547;28;20471;-71
2023/11/08 04:23:16;;;;;;;6.03;1.13;;;6.80;99.90;;;;;;5030192;28;20479;-72
2023/11/08 04:25:44;;;;;;;7.83;1.33;;;6.80;99.90;;;;;;5021503;28;20467;-71
2023/11/08 04:28:12;;;;;;;6.63;1.30;;;6.80;99.90;;;;;;5027990;28;20480;-72
2023/11/08 04:30:40;;;;;;;7.23;1.40;;;6.80;99.90;;;;;;5030537;28;20444;-70
2023/11/08 04:33:08;;;;;;;8.03;1.13;;;6.90;99.90;;;;;;5030811;28;20471;-70
2023/11/08 04:35:37;;;;;;;7.67;1.23;;;7.00;99.90;;;;;;5024626;28;20546;-70
2023/11/08 04:38:05;;;;;;;8.87;1.50;;;7.00;99.90;;;;;;5024478;28;20553;-70
2023/11/08 04:40:35;;;;;;;7.13;1.20;;;7.00;99.90;;;;;;5030912;28;20452;-71
2023/11/08 04:43:03;;;;;;;10.03;1.37;;;7.00;99.90;;;;;;5026998;28;20475;-69
2023/11/08 04:45:30;;;;;;;8.30;1.27;;;7.00;99.90;;;;;;5021124;28;21011;-69
2023/11/08 04:47:58;;;;;;;7.53;1.30;;;7.00;99.90;;;;;;5030696;28;20461;-71
2023/11/08 04:50:26;;;;;;;10.00;1.53;;;6.90;99.90;;;;;;5022262;28;20478;-70
2023/11/08 04:52:54;;;;;;;9.50;1.30;;;6.70;99.90;;;;;;5027795;28;20487;-72
2023/11/08 04:55:22;;;;;;;7.60;1.20;;;6.60;99.90;;;;;;5026433;28;20485;-70
2023/11/08 04:57:52;;;;;;;8.10;1.63;;;6.50;99.90;;;;;;5026003;28;20464;-71
2023/11/08 05:00:20;;;;;;;7.40;1.30;;;6.50;99.90;;;;;;5030454;28;20458;-71
2023/11/08 05:02:48;;;;;;;7.50;1.10;;;6.40;99.90;;;;;;5027175;28;20470;-70
2023/11/08 05:05:16;;;;;;;6.73;1.20;;;6.40;99.90;;;;;;5017371;28;20478;-70
2023/11/08 05:07:44;;;;;;;7.57;1.23;;;6.40;99.90;;;;;;5027661;28;20527;-69
2023/11/08 05:10:13;;;;;;;11.83;1.30;;;6.30;99.90;;;;;;5031966;28;20535;-68
2023/11/08 05:12:41;;;;;;;7.67;1.67;;;6.30;99.90;;;;;;5030859;28;20452;-70
2023/11/08 05:15:11;;;;;;;7.33;1.30;;;6.20;99.90;;;;;;5028446;28;20489;-71
2023/11/08 05:17:39;;;;;;;9.27;1.67;;;6.20;99.90;;;;;;5031697;28;20891;-71
2023/11/08 05:20:08;;;;;;;6.53;1.50;;;6.10;99.90;;;;;;5031938;28;20447;-69
2023/11/08 05:22:38;;;;;;;7.70;1.60;;;6.10;99.90;;;;;;5011977;28;20483;-70
2023/11/08 05:25:07;;;;;;;8.43;1.40;;;6.10;99.90;;;;;;5015719;28;20546;-71
2023/11/08 05:27:35;;;;;;;6.90;1.57;;;6.10;99.90;;;;;;5029875;28;20919;-70
2023/11/08 05:30:04;;;;;;;7.70;1.63;;;6.10;99.90;;;;;;5029911;28;20482;-69
2023/11/08 05:32:34;;;;;;;6.50;1.27;;;6.20;99.90;;;;;;5029797;28;20502;-69
2023/11/08 05:35:02;;;;;;;8.23;1.43;;;6.10;99.90;;;;;;5022681;28;20464;-70
2023/11/08 05:37:30;;;;;;;7.50;1.70;;;6.10;99.90;;;;;;5029612;28;20531;-71
2023/11/08 05:39:58;;;;;;;6.47;1.50;;;6.00;99.90;;;;;;5029740;28;20897;-72
2023/11/08 05:42:27;;;;;;;6.97;1.43;;;6.00;99.90;;;;;;5022190;28;20455;-68
2023/11/08 05:44:58;;;;;;;6.50;1.40;;;6.00;99.90;;;;;;5028881;28;20886;-72
2023/11/08 05:47:26;;;;;;;8.10;1.43;;;6.00;99.90;;;;;;5029275;28;20465;-71
2023/11/08 05:49:56;;;;;;;6.97;1.50;;;6.10;99.90;;;;;;5029291;28;21045;-70
2023/11/08 05:52:25;;;;;;;6.63;1.73;;;6.10;99.90;;;;;;5022483;28;20470;-70
2023/11/08 05:54:53;;;;;;;6.80;1.50;;;6.10;99.90;;;;;;5028536;28;20542;-69
2023/11/08 05:57:21;;;;;;;8.37;1.60;;;6.10;99.90;;;;;;5028970;28;20497;-72
2023/11/08 05:59:50;;;;;;;7.80;1.73;;;6.10;99.90;;;;;;5029036;28;20465;-73
2023/11/08 06:02:18;;;;;;;7.67;1.97;;;6.00;99.90;;;;;;5022813;28;21124;-72
2023/11/08 06:04:46;;;;;;;10.50;2.30;;;6.00;99.90;;;;;;5028200;28;20498;-72
2023/11/08 06:07:16;;;;;;;6.93;1.50;;;6.10;99.90;;;;;;5024008;28;20530;-73
2023/11/08 06:09:44;;;;;;;9.67;1.67;;;6.10;99.90;;;;;;5028423;28;20957;-72
2023/11/08 06:12:12;;;;;;;7.30;1.77;;;6.20;99.90;;;;;;5019395;28;20540;-73
2023/11/08 06:14:40;;;;;;;7.63;1.70;;;6.20;99.90;;;;;;5019188;28;20460;-72
2023/11/08 06:17:08;;;;;;;7.70;1.60;;;6.20;99.90;;;;;;5022996;28;21024;-73
2023/11/08 06:19:36;;;;;;;8.30;1.70;;;6.30;99.90;;;;;;5024554;28;20458;-73
2023/11/08 06:22:04;;;;;;;6.93;1.47;;;6.40;99.90;;;;;;5028253;28;20490;-73
2023/11/08 06:24:34;;;;;;;7.77;1.40;;;6.40;99.90;;;;;;5018411;28;20458;-71
2023/11/08 06:27:02;;;;;;;7.37;1.80;;;6.50;99.90;;;;;;5020156;28;21155;-71
2023/11/08 06:29:36;;;;;;;8.27;1.93;;;6.50;99.90;;;;;;5027528;28;20554;-72
2023/11/08 06:32:05;;;;;;;11.07;2.30;;;6.50;99.90;;;;;;5020990;28;20454;-70
2023/11/08 06:34:33;;;;;;;9.97;1.43;;;6.40;99.90;;;;;;5026911;28;20449;-70
2023/11/08 06:37:01;;;;;;;7.30;1.50;;;6.40;99.90;;;;;;5017647;28;20580;-72
2023/11/08 06:39:29;;;;;;;7.63;1.50;;;6.40;99.90;;;;;;5026668;28;20539;-71
2023/11/08 06:42:00;;;;;;;7.43;1.73;;;6.30;99.90;;;;;;5027051;28;20447;-71
2023/11/08 06:44:28;;;;;;;9.13;1.77;;;6.30;99.90;;;;;;5021709;28;21041;-72
2023/11/08 06:46:56;;;;;;;7.43;1.90;;;6.20;99.90;;;;;;5027348;28;20481;-72
2023/11/08 06:49:24;;;;;;;8.00;1.60;;;6.30;99.90;;;;;;5022390;28;20867;-71
2023/11/08 06:51:51;;;;;;;9.27;2.17;;;6.30;99.90;;;;;;5020262;28;20461;-71
2023/11/08 06:54:19;;;;;;;7.90;2.03;;;6.20;99.90;;;;;;5017798;28;20453;-72
2023/11/08 06:56:47;;;;;;;9.23;2.03;;;6.20;99.90;;;;;;5025591;28;20482;-71
2023/11/08 06:59:17;;;;;;;8.00;1.60;;;6.20;99.90;;;;;;5024403;28;20468;-71
2023/11/08 07:01:45;;;;;;;7.53;1.73;;;6.20;99.90;;;;;;5027670;28;20488;-75
2023/11/08 07:04:13;;;;;;;7.50;1.93;;;6.00;99.90;;;;;;5026108;28;21018;-74
2023/11/08 07:06:41;;;;;;;9.30;2.00;;;6.00;99.90;;;;;;5021953;28;20478;-74
2023/11/08 07:09:10;;;;;;;10.53;2.43;;;6.00;99.90;;;;;;5025636;28;20460;-75
2023/11/08 07:11:38;;;;;;;7.70;2.03;;;6.10;99.90;;;;;;5025489;28;20480;-72
2023/11/08 07:14:06;;;;;;;6.57;1.50;;;6.20;99.90;;;;;;5027821;28;20498;-71
2023/11/08 07:16:35;;;;;;;8.57;2.30;;;6.30;99.90;;;;;;5025978;28;20497;-72
2023/11/08 07:19:05;;;;;;;7.53;2.00;;;6.30;99.90;;;;;;5026663;28;20518;-72
2023/11/08 07:21:33;;;;;;;9.17;2.00;;;6.30;99.90;;;;;;5024263;28;20448;-71
2023/11/08 07:24:01;;;;;;;8.83;2.33;;;6.20;99.90;;;;;;5025159;28;20547;-71
2023/11/08 07:26:29;;;;;;;8.73;1.90;;;6.20;99.90;;;;;;5025272;28;20477;-72
2023/11/08 07:28:58;;;;;;;8.80;2.23;;;6.20;99.90;;;;;;5026125;28;20475;-71
2023/11/08 07:31:26;;;;;;;7.27;1.73;;;6.20;99.90;;;;;;5027134;28;20455;-72
2023/11/08 07:33:56;;;;;;;8.90;2.70;;;6.20;99.90;;;;;;5019855;28;20449;-72
2023/11/08 07:36:24;;;;;;;8.37;1.80;;;6.40;99.90;;;;;;5025860;28;20579;-74
2023/11/08 07:38:52;;;;;;;7.50;1.50;;;6.40;99.90;;;;;;5015118;28;20460;-72
2023/11/08 07:41:20;;;;;;;8.13;1.60;;;6.70;99.90;;;;;;5024441;28;20803;-71
2023/11/08 07:43:48;;;;;;;8.77;1.60;;;7.00;99.90;;;;;;5024384;28;20546;-73
2023/11/08 07:46:16;;;;;;;7.53;1.33;;;7.30;99.90;;;;;;5022136;28;20472;-73
2023/11/08 07:48:44;;;;;;;7.00;1.43;;;7.50;99.90;;;;;;5023523;28;20553;-75
2023/11/08 07:51:14;;;;;;;8.37;1.30;;;7.70;99.90;;;;;;5025909;28;20540;-74
2023/11/08 07:53:42;;;;;;;8.37;1.70;;;8.00;99.90;;;;;;5023505;28;20467;-73
2023/11/08 07:56:09;;;;;;;7.20;1.53;;;8.20;99.90;;;;;;5022639;28;21075;-73
2023/11/08 07:58:37;;;;;;;8.80;1.20;;;8.50;99.90;;;;;;5021300;28;20486;-74
2023/11/08 08:01:06;;;;;;;6.60;1.13;;;8.70;99.90;;;;;;5024647;28;20477;-72
2023/11/08 08:03:35;;;;;;;7.13;1.70;;;8.90;99.90;;;;;;5027453;28;20528;-75
2023/11/08 08:06:04;;;;;;;10.40;1.57;;;9.00;99.90;;;;;;5023085;28;20784;-72
2023/11/08 08:08:33;;;;;;;8.20;1.20;;;9.40;99.90;;;;;;5021094;28;20841;-72
2023/11/08 08:11:01;;;;;;;6.60;1.40;;;9.70;99.90;;;;;;5019150;28;20509;-72
2023/11/08 08:13:30;;;;;;;7.70;1.17;;;9.90;99.90;;;;;;5022774;28;20460;-72
2023/11/08 08:16:00;;;;;;;6.00;0.90;;;9.90;99.90;;;;;;5018980;28;20925;-74
2023/11/08 08:18:28;;;;;;;7.90;1.00;;;9.80;99.90;;;;;;5021787;28;20495;-72
2023/11/08 08:20:56;;;;;;;6.50;1.10;;;9.60;99.90;;;;;;5020478;28;20446;-73
2023/11/08 08:23:24;;;;;;;7.40;1.03;;;9.50;99.90;;;;;;5026021;28;20450;-74
2023/11/08 08:25:54;;;;;;;6.13;0.90;;;9.50;99.90;;;;;;5018433;28;20478;-73
2023/11/08 08:28:22;;;;;;;7.93;1.30;;;9.60;99.90;;;;;;5022854;28;20485;-70
2023/11/08 08:30:50;;;;;;;6.80;0.90;;;9.70;99.90;;;;;;5028383;28;20543;-74
2023/11/08 08:33:20;;;;;;;7.07;1.00;;;9.80;99.90;;;;;;5025827;28;20441;-72
2023/11/08 08:35:50;;;;;;;6.67;0.90;;;9.80;99.90;;;;;;5028348;28;20461;-72
2023/11/08 08:38:19;;;;;;;7.97;1.60;;;10.00;99.90;;;;;;5029155;28;20514;-76
2023/11/08 08:40:49;;;;;;;7.40;1.20;;;10.00;99.90;;;;;;5021262;28;20460;-72
2023/11/08 08:43:19;;;;;;;6.00;1.10;;;9.90;99.90;;;;;;5023916;28;20460;-73
2023/11/08 08:45:48;;;;;;;7.70;1.27;;;9.90;99.90;;;;;;5027558;28;21048;-73
2023/11/08 08:48:16;;;;;;;7.17;1.00;;;9.90;99.90;;;;;;5027371;28;20551;-73
2023/11/08 08:50:44;;;;;;;9.30;1.70;;;10.00;99.90;;;;;;5027406;28;20551;-75
2023/11/08 08:53:12;;;;;;;8.23;1.67;;;10.10;99.90;;;;;;5029877;28;20475;-75
2023/11/08 08:55:40;;;;;;;7.00;1.00;;;10.20;99.90;;;;;;5020451;28;20472;-75
2023/11/08 08:58:10;;;;;;;7.00;1.00;;;10.30;99.90;;;;;;5028881;28;20487;-73
2023/11/08 09:00:40;;;;;;;8.40;1.00;;;10.40;99.90;;;;;;5021366;28;20458;-74
2023/11/08 09:03:08;;;;;;;7.37;1.33;;;10.40;99.90;;;;;;5026801;28;20448;-75
2023/11/08 09:05:36;;;;;;;6.90;1.10;;;10.40;99.90;;;;;;5027763;28;21012;-74
2023/11/08 09:08:05;;;;;;;6.53;1.27;;;10.40;99.90;;;;;;5027484;28;20491;-74
2023/11/08 09:10:33;;;;;;;6.40;0.90;;;10.50;99.90;;;;;;5028368;28;21005;-73
2023/11/08 09:13:01;;;;;;;8.00;1.23;;;10.60;99.90;;;;;;5028180;28;20456;-73
2023/11/08 09:15:31;;;;;;;8.30;1.00;;;10.60;99.90;;;;;;5026272;28;20463;-74
2023/11/08 09:18:00;;;;;;;6.20;1.00;;;10.60;99.90;;;;;;5022179;28;21002;-75
2023/11/08 09:20:29;;;;;;;7.63;1.20;;;10.70;99.90;;;;;;5027858;28;20483;-72
2023/11/08 09:22:57;;;;;;;6.83;0.80;;;10.90;99.90;;;;;;5022869;28;20507;-72
2023/11/08 09:25:25;;;;;;;6.30;0.90;;;10.90;99.90;;;;;;5025163;28;20452;-75
2023/11/08 09:27:53;;;;;;;7.40;0.70;;;10.90;99.90;;;;;;5027084;28;20453;-75
2023/11/08 09:30:21;;;;;;;5.70;0.63;;;11.10;99.90;;;;;;5028076;28;20448;-73
2023/11/08 09:32:50;;;;;;;6.10;0.90;;;11.20;99.90;;;;;;5027209;28;20503;-74
2023/11/08 09:35:21;;;;;;;5.60;0.60;;;11.30;99.90;;;;;;5023061;28;20466;-73
2023/11/08 09:37:49;;;;;;;7.60;0.70;;;11.40;99.90;;;;;;5026094;28;20478;-75
2023/11/08 09:40:17;;;;;;;5.70;0.60;;;11.60;99.90;;;;;;5027246;28;20445;-75
2023/11/08 09:42:46;;;;;;;7.50;1.33;;;11.90;99.90;;;;;;5020288;28;20532;-72
2023/11/08 09:45:17;;;;;;;6.47;0.67;;;11.60;99.90;;;;;;5022890;28;20851;-73
2023/11/08 09:47:47;;;;;;;7.40;0.87;;;11.70;99.90;;;;;;5025679;28;20609;-74
2023/11/08 09:50:15;;;;;;;6.50;0.90;;;11.90;99.90;;;;;;5026764;28;20460;-73
2023/11/08 09:52:45;;;;;;;6.10;0.60;;;11.90;99.90;;;;;;5026683;28;20469;-74
2023/11/08 09:55:13;;;;;;;6.10;0.60;;;11.90;99.90;;;;;;5015757;28;21219;-73
2023/11/08 09:57:44;;;;;;;10.33;1.27;;;11.90;99.90;;;;;;5023850;28;20473;-72
2023/11/08 10:00:14;;;;;;;7.80;1.43;;;12.30;99.90;;;;;;5019660;28;20944;-76
2023/11/08 10:02:43;;;;;;;6.67;0.90;;;12.80;99.90;;;;;;5019307;28;20639;-73
2023/11/08 10:05:11;;;;;;;7.13;0.80;;;13.20;99.90;;;;;;5020656;28;20451;-73
2023/11/08 10:07:41;;;;;;;7.50;0.70;;;13.10;99.90;;;;;;5025722;28;20460;-72
2023/11/08 10:10:11;;;;;;;7.27;1.10;;;13.20;99.90;;;;;;5024157;28;20455;-74
2023/11/08 10:12:39;;;;;;;6.47;0.93;;;13.50;99.90;;;;;;5024245;28;20543;-73
2023/11/08 10:15:08;;;;;;;5.87;0.83;;;14.10;99.90;;;;;;5016596;28;20450;-72
2023/11/08 10:17:37;;;;;;;6.90;0.87;;;14.70;99.90;;;;;;5008805;28;20463;-72
2023/11/08 10:20:29;;;;;;;6.23;1.00;;;14.70;99.90;;;;;;5025020;28;20467;-76
2023/11/08 10:22:58;;;;;;;6.90;1.00;;;14.70;99.90;;;;;;5020173;28;20499;-72
2023/11/08 10:25:29;;;;;;;6.20;0.77;;;14.30;99.90;;;;;;5026476;28;20464;-72
2023/11/08 10:28:04;;;;;;;6.03;0.80;;;14.10;99.90;;;;;;5018582;28;20442;-72
2023/11/08 10:30:35;;;;;;;7.30;1.00;;;14.20;99.90;;;;;;5024150;28;20449;-74
2023/11/08 10:33:11;;;;;;;6.00;0.80;;;13.50;99.90;;;;;;5018939;28;20443;-72
2023/11/08 10:35:41;;;;;;;6.80;0.90;;;13.20;99.90;;;;;;5025809;28;20546;-74
2023/11/08 10:38:11;;;;;;;6.20;0.90;;;13.10;99.90;;;;;;5026521;28;20673;-74
2023/11/08 10:40:45;;;;;;;6.10;0.70;;;13.00;99.90;;;;;;5026406;28;20559;-72
2023/11/08 10:43:21;;;;;;;6.03;0.90;;;12.70;99.90;;;;;;5026460;28;21226;-75
2023/11/08 10:45:50;;;;;;;6.07;0.93;;;12.50;99.90;;;;;;5025188;28;20501;-76
2023/11/08 10:48:21;;;;;;;13.67;1.90;;;12.40;99.90;;;;;;5015381;28;20529;-73
2023/11/08 10:50:52;;;;;;;48.67;8.07;;;12.30;99.90;;;;;;5026011;28;20493;-72
2023/11/08 10:53:21;;;;;;;39.33;4.33;;;12.20;99.90;;;;;;5027684;28;20475;-72
2023/11/08 10:55:53;;;;;;;19.80;3.50;;;12.10;99.90;;;;;;5024656;28;21058;-73
2023/11/08 10:58:22;;;;;;;25.67;3.93;;;12.10;99.90;;;;;;5027345;28;20542;-73
2023/11/08 11:00:51;;;;;;;9.87;1.60;;;12.20;99.90;;;;;;5025769;28;20511;-73
2023/11/08 11:03:21;;;;;;;7.63;1.30;;;12.20;99.90;;;;;;5026378;28;20460;-75
2023/11/08 11:05:52;;;;;;;6.13;0.73;;;12.20;99.90;;;;;;5019468;28;20465;-76
2023/11/08 11:08:20;;;;;;;6.97;1.03;;;12.30;99.90;;;;;;5026466;28;20455;-73
2023/11/08 11:10:50;;;;;;;6.97;1.13;;;12.50;99.90;;;;;;5025992;28;20457;-73
2023/11/08 11:13:23;;;;;;;6.23;0.80;;;12.80;99.90;;;;;;5025832;28;20460;-75
2023/11/08 11:16:03;;;;;;;26.37;3.27;;;13.30;99.90;;;;;;5025319;28;21011;-75
2023/11/08 11:18:38;;;;;;;44.00;6.07;;;13.60;99.90;;;;;;5019740;28;20480;-74
2023/11/08 11:21:21;;;;;;;8.17;1.30;;;13.50;99.90;;;;;;5019312;28;20446;-73
2023/11/08 11:23:49;;;;;;;16.57;3.57;;;13.30;99.90;;;;;;5025488;28;20938;-72
2023/11/08 11:26:43;;;;;;;6.30;0.70;;;13.00;99.90;;;;;;5018848;28;20467;-72
2023/11/08 11:29:16;;;;;;;6.37;0.90;;;12.80;99.90;;;;;;5020603;28;20880;-75
2023/11/08 11:31:44;;;;;;;12.53;1.90;;;12.70;99.90;;;;;;5024067;28;20455;-76
2023/11/08 11:34:42;;;;;;;7.87;1.47;;;12.80;99.90;;;;;;5025477;28;20833;-74
2023/11/08 11:37:12;;;;;;;7.70;1.30;;;12.80;99.90;;;;;;5018565;28;20471;-73
2023/11/08 11:39:44;;;;;;;5.87;0.70;;;12.70;99.90;;;;;;5026441;28;21132;-76
2023/11/08 11:42:19;;;;;;;6.67;0.70;;;12.70;99.90;;;;;;5024746;28;20506;-73
2023/11/08 11:44:49;;;;;;;6.30;0.83;;;12.70;99.90;;;;;;5025351;28;20866;-73
2023/11/08 11:47:21;;;;;;;6.00;0.87;;;12.50;99.90;;;;;;5025650;28;20554;-73
2023/11/08 11:49:51;;;;;;;8.13;1.20;;;12.40;99.90;;;;;;5021568;28;20496;-73
2023/11/08 11:52:20;;;;;;;6.00;0.90;;;12.20;99.90;;;;;;5019599;28;20563;-74
2023/11/08 11:54:51;;;;;;;5.60;0.50;;;12.20;99.90;;;;;;5022449;28;20880;-75
2023/11/08 11:57:22;;;;;;;5.90;1.27;;;12.30;99.90;;;;;;5026008;28;20476;-73
2023/11/08 11:59:51;;;;;;;6.37;0.70;;;12.30;99.90;;;;;;5026396;28;20508;-76
2023/11/08 12:02:19;;;;;;;6.00;0.53;;;12.50;99.90;;;;;;5026872;28;20447;-75
2023/11/08 12:04:49;;;;;;;7.00;0.60;;;12.60;99.90;;;;;;5028829;28;20470;-73
2023/11/08 12:07:20;;;;;;;6.13;0.83;;;12.60;99.90;;;;;;5029084;28;21039;-73
2023/11/08 12:09:49;;;;;;;8.40;1.30;;;12.40;99.90;;;;;;5028621;28;21128;-73
2023/11/08 12:12:27;;;;;;;5.90;0.63;;;12.40;99.90;;;;;;5017631;28;20452;-74
2023/11/08 12:14:57;;;;;;;6.13;0.80;;;12.50;99.90;;;;;;5024005;28;20463;-76
2023/11/08 12:17:26;;;;;;;6.80;0.83;;;12.60;99.90;;;;;;5028916;28;20981;-75
2023/11/08 12:19:55;;;;;;;5.53;0.57;;;12.50;99.90;;;;;;5029816;28;20473;-75
2023/11/08 12:22:23;;;;;;;6.23;0.83;;;12.50;99.90;;;;;;5028202;28;20938;-73
2023/11/08 12:24:51;;;;;;;6.37;0.80;;;12.40;99.90;;;;;;5028026;28;20450;-74
2023/11/08 12:27:19;;;;;;;6.90;1.10;;;12.50;99.90;;;;;;5027575;28;20471;-73
2023/11/08 12:29:49;;;;;;;6.47;0.83;;;12.80;99.90;;;;;;5026566;28;20522;-76
2023/11/08 12:32:17;;;;;;;6.23;0.70;;;13.20;99.90;;;;;;5019145;28;20461;-70
2023/11/08 12:34:45;;;;;;;6.33;0.80;;;13.80;99.90;;;;;;5018022;28;20458;-72
2023/11/08 12:37:14;;;;;;;6.57;0.63;;;14.10;99.90;;;;;;5016152;28;20488;-73
2023/11/08 12:39:42;;;;;;;8.00;0.87;;;14.30;99.90;;;;;;5018623;28;20485;-70
2023/11/08 12:42:15;;;;;;;5.70;0.60;;;14.40;99.90;;;;;;5021063;28;20856;-69
2023/11/08 12:44:46;;;;;;;6.07;0.63;;;14.40;99.90;;;;;;5030490;28;20509;-72
2023/11/08 12:47:16;;;;;;;5.97;0.60;;;14.40;99.90;;;;;;5026670;28;20482;-71
2023/11/08 12:49:44;;;;;;;6.27;0.53;;;14.30;99.90;;;;;;5027764;28;20449;-71
2023/11/08 12:52:13;;;;;;;6.07;0.40;;;14.00;99.90;;;;;;5028038;28;20591;-71
2023/11/08 12:54:41;;;;;;;6.03;0.40;;;13.90;99.90;;;;;;5024483;28;20549;-71
2023/11/08 12:57:10;;;;;;;5.50;0.40;;;13.80;99.90;;;;;;5022973;28;20514;-73
2023/11/08 12:59:43;;;;;;;5.83;0.40;;;13.40;99.90;;;;;;5025480;28;20540;-70
2023/11/08 13:02:14;;;;;;;5.90;0.60;;;13.20;99.90;;;;;;5021990;28;20906;-75